sensor_id;sensor_type;location;lat;lon;timestamp;P1;durP1;ratioP1;P2;durP2;ratioP2
60464;SDS011;46314;52.392;9.758;2023-01-23T00:01:22;34.75;;;18.58;;
60464;SDS011;46314;52.392;9.758;2023-01-23T00:03:50;32.58;;;18.50;;
60464;SDS011;46314;52.392;9.758;2023-01-23T00:06:17;32.63;;;18.52;;
60464;SDS011;46314;52.392;9.758;2023-01-23T00:08:44;28.23;;;16.23;;
60464;SDS011;46314;52.392;9.758;2023-01-23T00:11:12;26.30;;;17.05;;
60464;SDS011;46314;52.392;9.758;2023-01-23T00:13:41;31.23;;;16.42;;
60464;SDS011;46314;52.392;9.758;2023-01-23T00:16:08;32.53;;;17.33;;
60464;SDS011;46314;52.392;9.758;2023-01-23T00:18:36;37.17;;;18.27;;
60464;SDS011;46314;52.392;9.758;2023-01-23T00:21:03;35.70;;;19.55;;
60464;SDS011;46314;52.392;9.758;2023-01-23T00:23:30;39.03;;;20.20;;
60464;SDS011;46314;52.392;9.758;2023-01-23T00:26:00;42.72;;;19.67;;
60464;SDS011;46314;52.392;9.758;2023-01-23T00:28:27;41.50;;;20.75;;
60464;SDS011;46314;52.392;9.758;2023-01-23T00:31:01;46.20;;;21.52;;
60464;SDS011;46314;52.392;9.758;2023-01-23T00:33:29;46.25;;;21.67;;
60464;SDS011;46314;52.392;9.758;2023-01-23T00:35:56;47.67;;;21.08;;
60464;SDS011;46314;52.392;9.758;2023-01-23T00:38:22;52.75;;;23.33;;
60464;SDS011;46314;52.392;9.758;2023-01-23T00:40:49;47.55;;;20.60;;
60464;SDS011;46314;52.392;9.758;2023-01-23T00:43:15;37.28;;;18.23;;
60464;SDS011;46314;52.392;9.758;2023-01-23T00:45:42;46.72;;;21.33;;
60464;SDS011;46314;52.392;9.758;2023-01-23T00:48:09;46.92;;;21.35;;
60464;SDS011;46314;52.392;9.758;2023-01-23T00:50:36;47.25;;;22.92;;
60464;SDS011;46314;52.392;9.758;2023-01-23T00:53:02;53.28;;;23.15;;
60464;SDS011;46314;52.392;9.758;2023-01-23T00:55:29;42.08;;;19.23;;
60464;SDS011;46314;52.392;9.758;2023-01-23T00:57:55;46.15;;;22.20;;
60464;SDS011;46314;52.392;9.758;2023-01-23T01:00:22;38.80;;;18.50;;
60464;SDS011;46314;52.392;9.758;2023-01-23T01:02:49;40.30;;;21.25;;
60464;SDS011;46314;52.392;9.758;2023-01-23T01:05:17;37.17;;;18.25;;
60464;SDS011;46314;52.392;9.758;2023-01-23T01:07:43;38.75;;;18.70;;
60464;SDS011;46314;52.392;9.758;2023-01-23T01:10:10;39.47;;;19.63;;
60464;SDS011;46314;52.392;9.758;2023-01-23T01:12:37;46.10;;;19.95;;
60464;SDS011;46314;52.392;9.758;2023-01-23T01:15:05;37.28;;;18.58;;
60464;SDS011;46314;52.392;9.758;2023-01-23T01:17:33;41.33;;;18.95;;
60464;SDS011;46314;52.392;9.758;2023-01-23T01:19:59;45.63;;;20.33;;
60464;SDS011;46314;52.392;9.758;2023-01-23T01:22:27;46.97;;;20.77;;
60464;SDS011;46314;52.392;9.758;2023-01-23T01:24:54;41.10;;;19.08;;
60464;SDS011;46314;52.392;9.758;2023-01-23T01:27:20;42.10;;;19.90;;
60464;SDS011;46314;52.392;9.758;2023-01-23T01:29:46;41.90;;;20.13;;
60464;SDS011;46314;52.392;9.758;2023-01-23T01:32:13;36.80;;;18.90;;
60464;SDS011;46314;52.392;9.758;2023-01-23T01:34:39;37.67;;;20.20;;
60464;SDS011;46314;52.392;9.758;2023-01-23T01:37:06;42.15;;;19.73;;
60464;SDS011;46314;52.392;9.758;2023-01-23T01:39:33;39.80;;;18.40;;
60464;SDS011;46314;52.392;9.758;2023-01-23T01:42:00;39.22;;;18.90;;
60464;SDS011;46314;52.392;9.758;2023-01-23T01:44:26;42.83;;;19.13;;
60464;SDS011;46314;52.392;9.758;2023-01-23T01:46:53;44.75;;;20.40;;
60464;SDS011;46314;52.392;9.758;2023-01-23T01:49:20;42.70;;;19.55;;
60464;SDS011;46314;52.392;9.758;2023-01-23T01:51:53;32.35;;;16.35;;
60464;SDS011;46314;52.392;9.758;2023-01-23T01:54:25;36.50;;;17.60;;
60464;SDS011;46314;52.392;9.758;2023-01-23T01:56:57;39.42;;;18.85;;
60464;SDS011;46314;52.392;9.758;2023-01-23T01:59:28;38.67;;;18.70;;
60464;SDS011;46314;52.392;9.758;2023-01-23T02:01:57;39.90;;;19.33;;
60464;SDS011;46314;52.392;9.758;2023-01-23T02:04:28;37.10;;;16.88;;
60464;SDS011;46314;52.392;9.758;2023-01-23T02:06:54;41.88;;;20.00;;
60464;SDS011;46314;52.392;9.758;2023-01-23T02:09:21;43.28;;;20.10;;
60464;SDS011;46314;52.392;9.758;2023-01-23T02:11:51;39.92;;;19.80;;
60464;SDS011;46314;52.392;9.758;2023-01-23T02:14:19;40.17;;;20.90;;
60464;SDS011;46314;52.392;9.758;2023-01-23T02:16:45;40.10;;;19.25;;
60464;SDS011;46314;52.392;9.758;2023-01-23T02:19:15;44.22;;;18.13;;
60464;SDS011;46314;52.392;9.758;2023-01-23T02:21:52;36.28;;;19.05;;
60464;SDS011;46314;52.392;9.758;2023-01-23T02:26:56;32.63;;;16.85;;
60464;SDS011;46314;52.392;9.758;2023-01-23T02:29:23;36.08;;;18.25;;
60464;SDS011;46314;52.392;9.758;2023-01-23T02:31:49;42.83;;;18.33;;
60464;SDS011;46314;52.392;9.758;2023-01-23T02:34:16;43.42;;;16.73;;
60464;SDS011;46314;52.392;9.758;2023-01-23T02:36:44;39.38;;;18.15;;
60464;SDS011;46314;52.392;9.758;2023-01-23T02:39:13;38.97;;;19.38;;
60464;SDS011;46314;52.392;9.758;2023-01-23T02:41:42;37.92;;;19.48;;
60464;SDS011;46314;52.392;9.758;2023-01-23T02:44:13;34.85;;;17.15;;
60464;SDS011;46314;52.392;9.758;2023-01-23T02:46:42;45.97;;;19.45;;
60464;SDS011;46314;52.392;9.758;2023-01-23T02:49:09;43.92;;;19.75;;
60464;SDS011;46314;52.392;9.758;2023-01-23T02:51:36;44.38;;;20.17;;
60464;SDS011;46314;52.392;9.758;2023-01-23T02:54:03;41.70;;;21.00;;
60464;SDS011;46314;52.392;9.758;2023-01-23T02:56:29;39.85;;;19.10;;
60464;SDS011;46314;52.392;9.758;2023-01-23T02:58:56;39.17;;;16.52;;
60464;SDS011;46314;52.392;9.758;2023-01-23T03:01:24;43.75;;;19.85;;
60464;SDS011;46314;52.392;9.758;2023-01-23T03:03:51;36.28;;;17.50;;
60464;SDS011;46314;52.392;9.758;2023-01-23T03:06:18;41.70;;;18.40;;
60464;SDS011;46314;52.392;9.758;2023-01-23T03:08:44;43.35;;;16.58;;
60464;SDS011;46314;52.392;9.758;2023-01-23T03:11:11;43.80;;;18.90;;
60464;SDS011;46314;52.392;9.758;2023-01-23T03:13:38;45.80;;;19.80;;
60464;SDS011;46314;52.392;9.758;2023-01-23T03:16:05;47.95;;;18.58;;
60464;SDS011;46314;52.392;9.758;2023-01-23T03:18:33;41.65;;;19.17;;
60464;SDS011;46314;52.392;9.758;2023-01-23T03:21:10;39.22;;;18.55;;
60464;SDS011;46314;52.392;9.758;2023-01-23T03:23:38;40.38;;;18.52;;
60464;SDS011;46314;52.392;9.758;2023-01-23T03:26:05;36.80;;;18.23;;
60464;SDS011;46314;52.392;9.758;2023-01-23T03:28:31;38.42;;;18.10;;
60464;SDS011;46314;52.392;9.758;2023-01-23T03:30:58;36.58;;;19.38;;
60464;SDS011;46314;52.392;9.758;2023-01-23T03:33:24;41.90;;;18.88;;
60464;SDS011;46314;52.392;9.758;2023-01-23T03:35:52;43.65;;;19.10;;
60464;SDS011;46314;52.392;9.758;2023-01-23T03:38:18;49.45;;;19.77;;
60464;SDS011;46314;52.392;9.758;2023-01-23T03:40:45;50.78;;;19.40;;
60464;SDS011;46314;52.392;9.758;2023-01-23T03:43:15;43.08;;;19.58;;
60464;SDS011;46314;52.392;9.758;2023-01-23T03:45:41;48.45;;;21.38;;
60464;SDS011;46314;52.392;9.758;2023-01-23T03:48:07;37.58;;;17.92;;
60464;SDS011;46314;52.392;9.758;2023-01-23T03:50:34;37.58;;;18.73;;
60464;SDS011;46314;52.392;9.758;2023-01-23T03:53:02;38.72;;;19.60;;
60464;SDS011;46314;52.392;9.758;2023-01-23T03:55:28;38.90;;;17.65;;
60464;SDS011;46314;52.392;9.758;2023-01-23T03:57:55;38.78;;;19.63;;
60464;SDS011;46314;52.392;9.758;2023-01-23T04:00:21;40.47;;;18.83;;
60464;SDS011;46314;52.392;9.758;2023-01-23T04:02:48;37.10;;;18.98;;
60464;SDS011;46314;52.392;9.758;2023-01-23T04:05:15;37.53;;;17.80;;
60464;SDS011;46314;52.392;9.758;2023-01-23T04:07:41;31.30;;;17.17;;
60464;SDS011;46314;52.392;9.758;2023-01-23T04:10:09;34.47;;;18.30;;
60464;SDS011;46314;52.392;9.758;2023-01-23T04:12:40;36.63;;;17.90;;
60464;SDS011;46314;52.392;9.758;2023-01-23T04:15:08;36.05;;;18.48;;
60464;SDS011;46314;52.392;9.758;2023-01-23T04:17:35;40.05;;;19.15;;
60464;SDS011;46314;52.392;9.758;2023-01-23T04:20:02;37.50;;;19.17;;
60464;SDS011;46314;52.392;9.758;2023-01-23T04:22:28;37.42;;;18.30;;
60464;SDS011;46314;52.392;9.758;2023-01-23T04:24:55;34.83;;;18.73;;
60464;SDS011;46314;52.392;9.758;2023-01-23T04:27:23;29.67;;;16.73;;
60464;SDS011;46314;52.392;9.758;2023-01-23T04:29:49;38.33;;;19.55;;
60464;SDS011;46314;52.392;9.758;2023-01-23T04:32:15;44.15;;;19.98;;
60464;SDS011;46314;52.392;9.758;2023-01-23T04:34:42;41.78;;;20.63;;
60464;SDS011;46314;52.392;9.758;2023-01-23T04:37:09;38.75;;;19.10;;
60464;SDS011;46314;52.392;9.758;2023-01-23T04:39:35;44.88;;;20.20;;
60464;SDS011;46314;52.392;9.758;2023-01-23T04:42:02;38.90;;;20.48;;
60464;SDS011;46314;52.392;9.758;2023-01-23T04:44:30;37.90;;;21.33;;
60464;SDS011;46314;52.392;9.758;2023-01-23T04:46:56;45.30;;;20.20;;
60464;SDS011;46314;52.392;9.758;2023-01-23T04:49:23;39.75;;;19.27;;
60464;SDS011;46314;52.392;9.758;2023-01-23T04:51:50;41.00;;;20.92;;
60464;SDS011;46314;52.392;9.758;2023-01-23T04:54:17;38.83;;;20.13;;
60464;SDS011;46314;52.392;9.758;2023-01-23T04:56:45;38.33;;;18.52;;
60464;SDS011;46314;52.392;9.758;2023-01-23T04:59:13;37.90;;;18.55;;
60464;SDS011;46314;52.392;9.758;2023-01-23T05:01:42;42.08;;;19.25;;
60464;SDS011;46314;52.392;9.758;2023-01-23T05:04:08;39.03;;;18.58;;
60464;SDS011;46314;52.392;9.758;2023-01-23T05:06:35;42.85;;;20.42;;
60464;SDS011;46314;52.392;9.758;2023-01-23T05:09:01;40.38;;;20.17;;
60464;SDS011;46314;52.392;9.758;2023-01-23T05:11:28;49.35;;;21.70;;
60464;SDS011;46314;52.392;9.758;2023-01-23T05:13:55;41.75;;;19.02;;
60464;SDS011;46314;52.392;9.758;2023-01-23T05:16:21;42.30;;;18.98;;
60464;SDS011;46314;52.392;9.758;2023-01-23T05:18:49;45.10;;;20.58;;
60464;SDS011;46314;52.392;9.758;2023-01-23T05:21:16;41.80;;;18.73;;
60464;SDS011;46314;52.392;9.758;2023-01-23T05:23:42;47.08;;;20.00;;
60464;SDS011;46314;52.392;9.758;2023-01-23T05:26:09;41.00;;;19.95;;
60464;SDS011;46314;52.392;9.758;2023-01-23T05:28:35;42.70;;;19.85;;
60464;SDS011;46314;52.392;9.758;2023-01-23T05:31:01;47.42;;;21.88;;
60464;SDS011;46314;52.392;9.758;2023-01-23T05:33:28;46.03;;;20.73;;
60464;SDS011;46314;52.392;9.758;2023-01-23T05:35:58;41.00;;;21.92;;
60464;SDS011;46314;52.392;9.758;2023-01-23T05:38:25;47.80;;;22.25;;
60464;SDS011;46314;52.392;9.758;2023-01-23T05:40:51;46.10;;;21.75;;
60464;SDS011;46314;52.392;9.758;2023-01-23T05:43:18;52.40;;;22.80;;
60464;SDS011;46314;52.392;9.758;2023-01-23T05:45:44;50.00;;;22.88;;
60464;SDS011;46314;52.392;9.758;2023-01-23T05:48:11;41.10;;;19.92;;
60464;SDS011;46314;52.392;9.758;2023-01-23T05:50:37;42.38;;;19.95;;
60464;SDS011;46314;52.392;9.758;2023-01-23T05:53:06;48.00;;;22.05;;
60464;SDS011;46314;52.392;9.758;2023-01-23T05:55:32;43.92;;;20.55;;
60464;SDS011;46314;52.392;9.758;2023-01-23T05:57:59;47.95;;;21.90;;
60464;SDS011;46314;52.392;9.758;2023-01-23T06:00:25;43.83;;;21.08;;
60464;SDS011;46314;52.392;9.758;2023-01-23T06:02:52;44.97;;;21.08;;
60464;SDS011;46314;52.392;9.758;2023-01-23T06:05:18;47.17;;;21.02;;
60464;SDS011;46314;52.392;9.758;2023-01-23T06:07:45;41.95;;;19.60;;
60464;SDS011;46314;52.392;9.758;2023-01-23T06:10:13;45.17;;;19.92;;
60464;SDS011;46314;52.392;9.758;2023-01-23T06:12:39;39.53;;;19.88;;
60464;SDS011;46314;52.392;9.758;2023-01-23T06:15:06;46.13;;;20.50;;
60464;SDS011;46314;52.392;9.758;2023-01-23T06:17:33;35.97;;;19.77;;
60464;SDS011;46314;52.392;9.758;2023-01-23T06:20:00;43.25;;;21.35;;
60464;SDS011;46314;52.392;9.758;2023-01-23T06:22:26;45.28;;;21.58;;
60464;SDS011;46314;52.392;9.758;2023-01-23T06:24:56;45.20;;;20.15;;
60464;SDS011;46314;52.392;9.758;2023-01-23T06:27:24;43.90;;;20.50;;
60464;SDS011;46314;52.392;9.758;2023-01-23T06:29:50;41.58;;;20.40;;
60464;SDS011;46314;52.392;9.758;2023-01-23T06:32:17;41.72;;;21.23;;
60464;SDS011;46314;52.392;9.758;2023-01-23T06:34:43;37.28;;;20.30;;
60464;SDS011;46314;52.392;9.758;2023-01-23T06:37:09;37.60;;;19.45;;
60464;SDS011;46314;52.392;9.758;2023-01-23T06:39:36;33.42;;;18.50;;
60464;SDS011;46314;52.392;9.758;2023-01-23T06:42:03;39.03;;;20.25;;
60464;SDS011;46314;52.392;9.758;2023-01-23T06:44:31;41.63;;;20.33;;
60464;SDS011;46314;52.392;9.758;2023-01-23T06:46:57;38.80;;;20.23;;
60464;SDS011;46314;52.392;9.758;2023-01-23T06:49:24;38.83;;;20.77;;
60464;SDS011;46314;52.392;9.758;2023-01-23T06:51:50;37.58;;;19.10;;
60464;SDS011;46314;52.392;9.758;2023-01-23T06:54:17;31.90;;;18.35;;
60464;SDS011;46314;52.392;9.758;2023-01-23T06:56:43;26.98;;;16.98;;
60464;SDS011;46314;52.392;9.758;2023-01-23T06:59:09;33.00;;;18.88;;
60464;SDS011;46314;52.392;9.758;2023-01-23T07:01:37;33.80;;;18.40;;
60464;SDS011;46314;52.392;9.758;2023-01-23T07:04:04;36.65;;;19.13;;
60464;SDS011;46314;52.392;9.758;2023-01-23T07:06:30;32.95;;;19.77;;
60464;SDS011;46314;52.392;9.758;2023-01-23T07:08:57;41.25;;;19.52;;
60464;SDS011;46314;52.392;9.758;2023-01-23T07:11:23;33.45;;;18.17;;
60464;SDS011;46314;52.392;9.758;2023-01-23T07:13:50;36.60;;;19.48;;
60464;SDS011;46314;52.392;9.758;2023-01-23T07:16:16;30.02;;;17.50;;
60464;SDS011;46314;52.392;9.758;2023-01-23T07:18:44;34.90;;;19.25;;
60464;SDS011;46314;52.392;9.758;2023-01-23T07:21:11;35.20;;;18.80;;
60464;SDS011;46314;52.392;9.758;2023-01-23T07:23:37;35.63;;;19.92;;
60464;SDS011;46314;52.392;9.758;2023-01-23T07:26:04;38.08;;;19.60;;
60464;SDS011;46314;52.392;9.758;2023-01-23T07:28:31;32.28;;;18.85;;
60464;SDS011;46314;52.392;9.758;2023-01-23T07:30:58;33.35;;;18.10;;
60464;SDS011;46314;52.392;9.758;2023-01-23T07:33:24;36.33;;;18.92;;
60464;SDS011;46314;52.392;9.758;2023-01-23T07:35:52;33.42;;;19.45;;
60464;SDS011;46314;52.392;9.758;2023-01-23T07:38:19;34.10;;;18.08;;
60464;SDS011;46314;52.392;9.758;2023-01-23T07:40:46;33.47;;;18.40;;
60464;SDS011;46314;52.392;9.758;2023-01-23T07:43:13;34.97;;;19.67;;
60464;SDS011;46314;52.392;9.758;2023-01-23T07:45:40;35.70;;;19.30;;
60464;SDS011;46314;52.392;9.758;2023-01-23T07:48:06;34.83;;;18.70;;
60464;SDS011;46314;52.392;9.758;2023-01-23T07:50:33;31.50;;;19.00;;
60464;SDS011;46314;52.392;9.758;2023-01-23T07:53:01;39.45;;;20.48;;
60464;SDS011;46314;52.392;9.758;2023-01-23T07:55:28;34.85;;;20.00;;
60464;SDS011;46314;52.392;9.758;2023-01-23T07:57:54;35.13;;;17.85;;
60464;SDS011;46314;52.392;9.758;2023-01-23T08:00:21;34.13;;;19.02;;
60464;SDS011;46314;52.392;9.758;2023-01-23T08:02:51;31.85;;;18.65;;
60464;SDS011;46314;52.392;9.758;2023-01-23T08:05:17;33.88;;;18.83;;
60464;SDS011;46314;52.392;9.758;2023-01-23T08:07:44;35.05;;;20.00;;
60464;SDS011;46314;52.392;9.758;2023-01-23T08:10:11;35.35;;;20.20;;
60464;SDS011;46314;52.392;9.758;2023-01-23T08:12:38;33.72;;;19.45;;
60464;SDS011;46314;52.392;9.758;2023-01-23T08:15:05;38.15;;;21.08;;
60464;SDS011;46314;52.392;9.758;2023-01-23T08:17:32;40.53;;;21.30;;
60464;SDS011;46314;52.392;9.758;2023-01-23T08:19:59;41.33;;;22.55;;
60464;SDS011;46314;52.392;9.758;2023-01-23T08:22:25;39.75;;;21.77;;
60464;SDS011;46314;52.392;9.758;2023-01-23T08:24:52;41.67;;;22.33;;
60464;SDS011;46314;52.392;9.758;2023-01-23T08:27:19;41.53;;;22.65;;
60464;SDS011;46314;52.392;9.758;2023-01-23T08:29:46;43.17;;;23.17;;
60464;SDS011;46314;52.392;9.758;2023-01-23T08:32:12;43.40;;;23.63;;
60464;SDS011;46314;52.392;9.758;2023-01-23T08:34:39;43.85;;;22.50;;
60464;SDS011;46314;52.392;9.758;2023-01-23T08:37:05;41.92;;;22.13;;
60464;SDS011;46314;52.392;9.758;2023-01-23T08:39:32;48.55;;;22.63;;
60464;SDS011;46314;52.392;9.758;2023-01-23T08:41:58;45.20;;;22.77;;
60464;SDS011;46314;52.392;9.758;2023-01-23T08:44:26;38.05;;;21.52;;
60464;SDS011;46314;52.392;9.758;2023-01-23T08:46:53;46.97;;;21.15;;
60464;SDS011;46314;52.392;9.758;2023-01-23T08:49:19;38.38;;;21.50;;
60464;SDS011;46314;52.392;9.758;2023-01-23T08:51:46;45.03;;;23.55;;
60464;SDS011;46314;52.392;9.758;2023-01-23T08:54:12;43.08;;;22.10;;
60464;SDS011;46314;52.392;9.758;2023-01-23T08:56:38;42.70;;;20.65;;
60464;SDS011;46314;52.392;9.758;2023-01-23T08:59:05;47.45;;;23.08;;
60464;SDS011;46314;52.392;9.758;2023-01-23T09:01:33;41.90;;;20.38;;
60464;SDS011;46314;52.392;9.758;2023-01-23T09:04:00;41.00;;;20.05;;
60464;SDS011;46314;52.392;9.758;2023-01-23T09:06:26;37.38;;;20.98;;
60464;SDS011;46314;52.392;9.758;2023-01-23T09:08:53;36.08;;;20.23;;
60464;SDS011;46314;52.392;9.758;2023-01-23T09:11:19;36.63;;;18.95;;
60464;SDS011;46314;52.392;9.758;2023-01-23T09:13:46;37.30;;;20.75;;
60464;SDS011;46314;52.392;9.758;2023-01-23T09:16:12;38.50;;;20.63;;
60464;SDS011;46314;52.392;9.758;2023-01-23T09:18:41;32.70;;;19.48;;
60464;SDS011;46314;52.392;9.758;2023-01-23T09:21:09;31.33;;;18.88;;
60464;SDS011;46314;52.392;9.758;2023-01-23T09:23:37;37.30;;;20.10;;
60464;SDS011;46314;52.392;9.758;2023-01-23T09:26:04;32.83;;;18.92;;
60464;SDS011;46314;52.392;9.758;2023-01-23T09:28:31;35.28;;;19.42;;
60464;SDS011;46314;52.392;9.758;2023-01-23T09:31:01;33.78;;;18.80;;
60464;SDS011;46314;52.392;9.758;2023-01-23T09:33:28;33.90;;;19.17;;
60464;SDS011;46314;52.392;9.758;2023-01-23T09:35:56;38.28;;;19.27;;
60464;SDS011;46314;52.392;9.758;2023-01-23T09:38:22;35.35;;;20.10;;
60464;SDS011;46314;52.392;9.758;2023-01-23T09:40:49;37.17;;;19.88;;
60464;SDS011;46314;52.392;9.758;2023-01-23T09:43:20;32.10;;;19.98;;
60464;SDS011;46314;52.392;9.758;2023-01-23T09:45:50;34.85;;;20.02;;
60464;SDS011;46314;52.392;9.758;2023-01-23T09:48:25;38.70;;;20.08;;
60464;SDS011;46314;52.392;9.758;2023-01-23T09:50:57;31.27;;;17.38;;
60464;SDS011;46314;52.392;9.758;2023-01-23T09:53:28;35.00;;;18.98;;
60464;SDS011;46314;52.392;9.758;2023-01-23T09:56:01;38.85;;;20.10;;
60464;SDS011;46314;52.392;9.758;2023-01-23T09:58:36;34.85;;;19.40;;
60464;SDS011;46314;52.392;9.758;2023-01-23T10:01:08;41.55;;;21.70;;
60464;SDS011;46314;52.392;9.758;2023-01-23T10:03:36;31.05;;;17.27;;
60464;SDS011;46314;52.392;9.758;2023-01-23T10:06:07;38.85;;;21.52;;
60464;SDS011;46314;52.392;9.758;2023-01-23T10:08:46;34.90;;;20.02;;
60464;SDS011;46314;52.392;9.758;2023-01-23T10:11:29;33.38;;;19.33;;
60464;SDS011;46314;52.392;9.758;2023-01-23T10:14:11;39.78;;;21.90;;
60464;SDS011;46314;52.392;9.758;2023-01-23T10:16:50;37.35;;;20.67;;
60464;SDS011;46314;52.392;9.758;2023-01-23T10:19:35;41.75;;;20.52;;
60464;SDS011;46314;52.392;9.758;2023-01-23T10:22:14;41.90;;;22.58;;
60464;SDS011;46314;52.392;9.758;2023-01-23T10:27:20;40.83;;;21.63;;
60464;SDS011;46314;52.392;9.758;2023-01-23T10:29:49;40.88;;;20.35;;
60464;SDS011;46314;52.392;9.758;2023-01-23T10:32:23;40.05;;;21.13;;
60464;SDS011;46314;52.392;9.758;2023-01-23T10:34:53;39.67;;;22.48;;
60464;SDS011;46314;52.392;9.758;2023-01-23T10:37:30;39.00;;;21.30;;
60464;SDS011;46314;52.392;9.758;2023-01-23T10:40:06;43.47;;;22.17;;
60464;SDS011;46314;52.392;9.758;2023-01-23T10:42:37;36.47;;;19.20;;
60464;SDS011;46314;52.392;9.758;2023-01-23T10:45:04;29.95;;;17.98;;
60464;SDS011;46314;52.392;9.758;2023-01-23T10:47:33;29.48;;;18.05;;
60464;SDS011;46314;52.392;9.758;2023-01-23T10:50:04;34.47;;;19.23;;
60464;SDS011;46314;52.392;9.758;2023-01-23T10:52:34;32.70;;;17.70;;
60464;SDS011;46314;52.392;9.758;2023-01-23T10:55:03;37.88;;;19.10;;
60464;SDS011;46314;52.392;9.758;2023-01-23T10:57:34;32.75;;;18.92;;
60464;SDS011;46314;52.392;9.758;2023-01-23T11:00:16;32.42;;;17.85;;
60464;SDS011;46314;52.392;9.758;2023-01-23T11:02:47;34.67;;;17.33;;
60464;SDS011;46314;52.392;9.758;2023-01-23T11:05:34;36.25;;;19.45;;
60464;SDS011;46314;52.392;9.758;2023-01-23T11:08:25;34.60;;;20.05;;
60464;SDS011;46314;52.392;9.758;2023-01-23T11:11:10;35.63;;;19.45;;
60464;SDS011;46314;52.392;9.758;2023-01-23T11:13:44;37.75;;;20.08;;
60464;SDS011;46314;52.392;9.758;2023-01-23T11:16:12;34.72;;;19.02;;
60464;SDS011;46314;52.392;9.758;2023-01-23T11:18:42;34.83;;;20.20;;
60464;SDS011;46314;52.392;9.758;2023-01-23T11:21:20;31.42;;;19.13;;
60464;SDS011;46314;52.392;9.758;2023-01-23T11:23:48;35.33;;;20.60;;
60464;SDS011;46314;52.392;9.758;2023-01-23T11:29:21;33.45;;;18.90;;
60464;SDS011;46314;52.392;9.758;2023-01-23T11:31:49;36.83;;;19.60;;
60464;SDS011;46314;52.392;9.758;2023-01-23T11:34:22;33.58;;;18.85;;
60464;SDS011;46314;52.392;9.758;2023-01-23T11:36:52;36.38;;;20.33;;
60464;SDS011;46314;52.392;9.758;2023-01-23T11:39:34;32.00;;;17.48;;
60464;SDS011;46314;52.392;9.758;2023-01-23T11:42:09;32.47;;;17.15;;
60464;SDS011;46314;52.392;9.758;2023-01-23T11:44:38;32.25;;;17.58;;
60464;SDS011;46314;52.392;9.758;2023-01-23T11:50:19;34.03;;;18.73;;
60464;SDS011;46314;52.392;9.758;2023-01-23T11:52:56;37.63;;;18.40;;
60464;SDS011;46314;52.392;9.758;2023-01-23T11:55:38;33.42;;;18.60;;
60464;SDS011;46314;52.392;9.758;2023-01-23T11:58:21;36.70;;;20.55;;
60464;SDS011;46314;52.392;9.758;2023-01-23T12:01:08;33.38;;;19.25;;
60464;SDS011;46314;52.392;9.758;2023-01-23T12:06:57;30.35;;;17.13;;
60464;SDS011;46314;52.392;9.758;2023-01-23T12:09:38;27.23;;;16.98;;
60464;SDS011;46314;52.392;9.758;2023-01-23T12:12:16;36.42;;;19.17;;
60464;SDS011;46314;52.392;9.758;2023-01-23T12:14:52;31.35;;;18.02;;
60464;SDS011;46314;52.392;9.758;2023-01-23T12:17:30;31.58;;;18.00;;
60464;SDS011;46314;52.392;9.758;2023-01-23T12:20:14;28.27;;;16.30;;
60464;SDS011;46314;52.392;9.758;2023-01-23T12:22:54;28.98;;;17.92;;
60464;SDS011;46314;52.392;9.758;2023-01-23T12:25:31;29.95;;;18.50;;
60464;SDS011;46314;52.392;9.758;2023-01-23T12:28:03;28.83;;;17.30;;
60464;SDS011;46314;52.392;9.758;2023-01-23T12:30:45;27.55;;;17.10;;
60464;SDS011;46314;52.392;9.758;2023-01-23T12:36:15;27.30;;;16.40;;
60464;SDS011;46314;52.392;9.758;2023-01-23T12:38:55;27.08;;;16.10;;
60464;SDS011;46314;52.392;9.758;2023-01-23T12:41:31;25.67;;;15.65;;
60464;SDS011;46314;52.392;9.758;2023-01-23T12:44:05;24.30;;;15.65;;
60464;SDS011;46314;52.392;9.758;2023-01-23T12:46:39;31.52;;;18.33;;
60464;SDS011;46314;52.392;9.758;2023-01-23T12:49:17;26.95;;;16.42;;
60464;SDS011;46314;52.392;9.758;2023-01-23T12:51:51;30.52;;;18.08;;
60464;SDS011;46314;52.392;9.758;2023-01-23T12:54:26;33.00;;;19.33;;
60464;SDS011;46314;52.392;9.758;2023-01-23T12:57:01;32.35;;;18.67;;
60464;SDS011;46314;52.392;9.758;2023-01-23T12:59:34;34.22;;;20.17;;
60464;SDS011;46314;52.392;9.758;2023-01-23T13:02:15;31.02;;;18.40;;
60464;SDS011;46314;52.392;9.758;2023-01-23T13:05:39;34.47;;;18.75;;
60464;SDS011;46314;52.392;9.758;2023-01-23T13:08:12;34.28;;;18.35;;
60464;SDS011;46314;52.392;9.758;2023-01-23T13:10:53;32.60;;;19.02;;
60464;SDS011;46314;52.392;9.758;2023-01-23T13:13:26;41.00;;;21.48;;
60464;SDS011;46314;52.392;9.758;2023-01-23T13:16:02;35.25;;;20.00;;
60464;SDS011;46314;52.392;9.758;2023-01-23T13:18:34;34.25;;;19.65;;
60464;SDS011;46314;52.392;9.758;2023-01-23T13:21:00;31.40;;;18.10;;
60464;SDS011;46314;52.392;9.758;2023-01-23T13:23:32;34.55;;;20.73;;
60464;SDS011;46314;52.392;9.758;2023-01-23T13:28:56;26.80;;;16.73;;
60464;SDS011;46314;52.392;9.758;2023-01-23T13:31:26;29.85;;;18.20;;
60464;SDS011;46314;52.392;9.758;2023-01-23T13:33:59;33.25;;;19.38;;
60464;SDS011;46314;52.392;9.758;2023-01-23T13:36:40;30.52;;;18.27;;
60464;SDS011;46314;52.392;9.758;2023-01-23T13:39:18;28.77;;;17.85;;
60464;SDS011;46314;52.392;9.758;2023-01-23T13:41:48;31.13;;;17.88;;
60464;SDS011;46314;52.392;9.758;2023-01-23T13:44:20;29.10;;;17.35;;
60464;SDS011;46314;52.392;9.758;2023-01-23T13:47:02;27.27;;;16.88;;
60464;SDS011;46314;52.392;9.758;2023-01-23T13:49:53;30.90;;;17.92;;
60464;SDS011;46314;52.392;9.758;2023-01-23T13:52:40;34.97;;;20.13;;
60464;SDS011;46314;52.392;9.758;2023-01-23T13:55:25;34.60;;;20.13;;
60464;SDS011;46314;52.392;9.758;2023-01-23T13:58:09;35.25;;;20.23;;
60464;SDS011;46314;52.392;9.758;2023-01-23T14:00:53;33.42;;;18.90;;
60464;SDS011;46314;52.392;9.758;2023-01-23T14:03:39;37.03;;;20.98;;
60464;SDS011;46314;52.392;9.758;2023-01-23T14:15:19;28.25;;;17.77;;
60464;SDS011;46314;52.392;9.758;2023-01-23T14:18:01;29.35;;;18.17;;
60464;SDS011;46314;52.392;9.758;2023-01-23T14:20:43;31.15;;;18.63;;
60464;SDS011;46314;52.392;9.758;2023-01-23T14:23:25;28.40;;;16.52;;
60464;SDS011;46314;52.392;9.758;2023-01-23T14:25:54;26.07;;;15.20;;
60464;SDS011;46314;52.392;9.758;2023-01-23T14:28:22;33.75;;;20.20;;
60464;SDS011;46314;52.392;9.758;2023-01-23T14:30:55;32.28;;;19.05;;
60464;SDS011;46314;52.392;9.758;2023-01-23T14:33:24;29.48;;;18.63;;
60464;SDS011;46314;52.392;9.758;2023-01-23T14:35:53;36.88;;;20.08;;
60464;SDS011;46314;52.392;9.758;2023-01-23T14:38:26;26.27;;;17.13;;
60464;SDS011;46314;52.392;9.758;2023-01-23T14:40:56;32.13;;;20.27;;
60464;SDS011;46314;52.392;9.758;2023-01-23T14:43:24;30.75;;;19.25;;
60464;SDS011;46314;52.392;9.758;2023-01-23T14:46:00;30.92;;;19.23;;
60464;SDS011;46314;52.392;9.758;2023-01-23T14:48:29;31.27;;;19.10;;
60464;SDS011;46314;52.392;9.758;2023-01-23T14:51:05;29.33;;;18.15;;
60464;SDS011;46314;52.392;9.758;2023-01-23T14:53:38;30.08;;;19.67;;
60464;SDS011;46314;52.392;9.758;2023-01-23T14:56:06;27.42;;;17.63;;
60464;SDS011;46314;52.392;9.758;2023-01-23T14:58:39;30.45;;;18.05;;
60464;SDS011;46314;52.392;9.758;2023-01-23T15:01:06;30.08;;;18.73;;
60464;SDS011;46314;52.392;9.758;2023-01-23T15:03:36;31.35;;;19.00;;
60464;SDS011;46314;52.392;9.758;2023-01-23T15:06:10;32.00;;;19.27;;